Time;durP1;ratioP1;P1;durP2;ratioP2;P2;SDS_P1;SDS_P2;PMS_P1;PMS_P2;Temp;Humidity;BMP_temperature;BMP_pressure;BME280_temperature;BME280_humidity;BME280_pressure;Samples;Min_cycle;Max_cycle;Signal;HPM_P1;HPM_P2
2023/02/11 00:01:09;;;;;;;18.42;7.88;;;8.60;99.90;;;;;;4979939;28;91468;-79
2023/02/11 00:03:37;;;;;;;22.52;7.72;;;8.50;99.90;;;;;;4997184;28;88048;-79
2023/02/11 00:06:08;;;;;;;20.90;8.07;;;8.50;99.90;;;;;;4996050;28;89903;-79
2023/02/11 00:08:35;;;;;;;21.02;7.10;;;8.60;99.90;;;;;;4996702;28;88414;-80
2023/02/11 00:11:03;;;;;;;19.92;7.07;;;8.60;99.90;;;;;;4996409;28;88767;-79
2023/02/11 00:13:30;;;;;;;22.92;7.47;;;8.60;99.90;;;;;;4996046;28;88960;-79
2023/02/11 00:15:57;;;;;;;16.65;6.80;;;8.60;99.90;;;;;;4979501;28;89004;-79
2023/02/11 00:18:24;;;;;;;21.08;7.70;;;8.60;99.90;;;;;;4997291;28;88474;-79
2023/02/11 00:20:51;;;;;;;18.85;6.78;;;8.60;99.90;;;;;;4995963;28;91223;-79
2023/02/11 00:23:17;;;;;;;16.65;7.18;;;8.60;99.90;;;;;;4995981;28;88629;-79
2023/02/11 00:25:45;;;;;;;14.95;6.82;;;8.60;99.90;;;;;;4979736;28;88584;-79
2023/02/11 00:28:12;;;;;;;14.30;6.03;;;8.60;99.90;;;;;;4997222;28;88443;-79
2023/02/11 00:30:39;;;;;;;18.48;6.38;;;8.60;99.90;;;;;;4995354;28;91508;-80
2023/02/11 00:33:07;;;;;;;21.42;7.72;;;8.60;99.90;;;;;;4980004;28;91310;-79
2023/02/11 00:35:37;;;;;;;23.27;7.55;;;8.60;99.90;;;;;;4995542;28;88387;-79
2023/02/11 00:38:06;;;;;;;21.15;6.68;;;8.50;99.90;;;;;;4979510;28;90539;-79
2023/02/11 00:40:33;;;;;;;19.27;6.85;;;8.50;99.90;;;;;;4978602;28;92294;-79
2023/02/11 00:43:02;;;;;;;21.55;6.78;;;8.50;99.90;;;;;;4995509;28;92453;-79
2023/02/11 00:45:30;;;;;;;17.55;7.28;;;8.50;99.90;;;;;;4995526;28;89148;-79
2023/02/11 00:47:57;;;;;;;19.67;7.45;;;8.50;99.90;;;;;;4996047;28;88561;-79
2023/02/11 00:50:24;;;;;;;22.33;8.50;;;8.40;99.90;;;;;;4978712;28;91459;-79
2023/02/11 00:52:51;;;;;;;17.25;7.18;;;8.40;99.90;;;;;;4996997;28;88614;-79
2023/02/11 00:55:18;;;;;;;23.88;7.78;;;8.40;99.90;;;;;;4997618;28;88075;-79
2023/02/11 00:57:45;;;;;;;18.45;7.45;;;8.40;99.90;;;;;;4999650;28;88682;-79
2023/02/11 01:00:15;;;;;;;18.00;7.60;;;8.40;99.90;;;;;;4982874;28;88747;-78
2023/02/11 01:02:43;;;;;;;17.95;7.55;;;8.40;99.90;;;;;;5000076;28;88047;-78
2023/02/11 01:05:10;;;;;;;23.08;7.75;;;8.40;99.90;;;;;;4998761;28;88831;-79
2023/02/11 01:07:37;;;;;;;18.50;7.22;;;8.40;99.90;;;;;;4982160;28;91276;-78
2023/02/11 01:10:05;;;;;;;20.95;7.40;;;8.50;99.90;;;;;;4998812;28;89233;-79
2023/02/11 01:12:32;;;;;;;21.17;8.43;;;8.40;99.90;;;;;;4998721;28;88656;-79
2023/02/11 01:15:03;;;;;;;22.60;7.10;;;8.40;99.90;;;;;;4998779;28;88060;-79
2023/02/11 01:17:32;;;;;;;18.98;7.88;;;8.40;99.90;;;;;;4998553;28;90809;-79
2023/02/11 01:20:01;;;;;;;27.25;7.78;;;8.40;99.90;;;;;;4999916;28;88825;-79
2023/02/11 01:22:28;;;;;;;19.95;6.95;;;8.30;99.90;;;;;;4998703;28;90667;-79
2023/02/11 01:24:55;;;;;;;19.33;7.45;;;8.30;99.90;;;;;;4998324;28;88353;-79
2023/02/11 01:27:21;;;;;;;22.20;7.63;;;8.30;99.90;;;;;;4999680;28;88325;-79
2023/02/11 01:29:48;;;;;;;20.40;8.32;;;8.30;99.90;;;;;;4998166;28;89455;-79
2023/02/11 01:32:16;;;;;;;20.67;7.15;;;8.30;99.90;;;;;;4981835;28;91933;-79
2023/02/11 01:34:45;;;;;;;22.48;8.02;;;8.30;99.90;;;;;;4997978;28;89491;-79
2023/02/11 01:37:12;;;;;;;16.42;6.93;;;8.30;99.90;;;;;;4998490;28;88301;-79
2023/02/11 01:39:39;;;;;;;20.45;7.43;;;8.30;99.90;;;;;;4964956;28;89922;-79
2023/02/11 01:42:06;;;;;;;23.70;7.53;;;8.30;99.90;;;;;;4998368;28;91017;-79
2023/02/11 01:44:36;;;;;;;16.23;7.30;;;8.30;99.90;;;;;;4999354;28;87969;-79
2023/02/11 01:47:05;;;;;;;19.15;8.27;;;8.30;99.90;;;;;;4998489;28;90892;-79
2023/02/11 01:49:37;;;;;;;22.00;8.48;;;8.30;99.90;;;;;;4997559;28;90961;-79
2023/02/11 01:52:24;;;;;;;20.05;8.20;;;8.40;99.90;;;;;;4997787;28;88723;-79
2023/02/11 01:57:46;;;;;;;20.33;7.32;;;8.40;99.90;;;;;;4999130;28;88075;-79
2023/02/11 02:00:20;;;;;;;19.02;8.65;;;8.40;99.90;;;;;;4998099;28;90379;-79
2023/02/11 02:03:07;;;;;;;24.08;8.75;;;8.40;99.90;;;;;;4997578;28;91722;-79
2023/02/11 02:05:37;;;;;;;20.20;8.43;;;8.50;99.90;;;;;;4997749;28;89827;-79
2023/02/11 02:08:45;;;;;;;16.38;7.95;;;8.50;99.90;;;;;;4998079;28;88161;-79
2023/02/11 02:11:12;;;;;;;20.63;8.30;;;8.50;99.90;;;;;;4981012;28;91318;-79
2023/02/11 02:13:39;;;;;;;20.13;8.13;;;8.50;99.90;;;;;;4965310;28;91309;-79
2023/02/11 02:16:15;;;;;;;19.77;8.77;;;8.50;99.90;;;;;;4980919;28;90200;-79
2023/02/11 02:19:15;;;;;;;18.42;8.05;;;8.50;99.90;;;;;;4999188;28;88469;-79
2023/02/11 02:22:13;;;;;;;20.90;8.68;;;8.50;99.90;;;;;;4953992;28;89645;-79
2023/02/11 02:25:07;;;;;;;21.38;8.90;;;8.50;99.90;;;;;;4998983;28;89804;-79
2023/02/11 02:27:51;;;;;;;20.25;8.88;;;8.50;99.90;;;;;;4998795;28;88065;-78
2023/02/11 02:30:52;;;;;;;21.98;9.10;;;8.50;99.90;;;;;;4999028;28;88344;-78
2023/02/11 02:33:43;;;;;;;24.95;9.20;;;8.50;99.90;;;;;;4999013;28;88997;-78
2023/02/11 02:36:26;;;;;;;20.95;9.35;;;8.50;99.90;;;;;;4980891;28;90400;-78
2023/02/11 02:39:21;;;;;;;17.50;8.85;;;8.50;99.90;;;;;;4997166;28;89608;-78
2023/02/11 02:41:49;;;;;;;20.48;9.38;;;8.60;99.90;;;;;;4997482;28;90301;-79
2023/02/11 02:44:17;;;;;;;23.15;9.88;;;8.50;99.90;;;;;;4998611;28;88854;-78
2023/02/11 02:46:44;;;;;;;26.45;9.50;;;8.50;99.90;;;;;;4980552;28;90242;-79
2023/02/11 02:49:14;;;;;;;24.08;10.73;;;8.60;99.90;;;;;;4996832;28;88789;-78
2023/02/11 02:52:15;;;;;;;21.95;9.85;;;8.60;99.90;;;;;;4997549;28;88521;-78
2023/02/11 02:54:54;;;;;;;21.02;9.50;;;8.60;99.90;;;;;;4998296;28;88027;-79
2023/02/11 02:57:52;;;;;;;19.13;9.75;;;8.60;99.90;;;;;;4980618;28;91216;-78
2023/02/11 03:00:34;;;;;;;25.27;11.20;;;8.70;99.90;;;;;;4998630;28;88145;-78
2023/02/11 03:03:19;;;;;;;21.67;10.23;;;8.60;99.90;;;;;;4996657;28;88453;-79
2023/02/11 03:06:04;;;;;;;19.95;10.43;;;8.70;99.90;;;;;;4996132;28;90124;-79
2023/02/11 03:08:42;;;;;;;24.27;10.15;;;8.60;99.90;;;;;;4996715;28;89354;-79
2023/02/11 03:11:10;;;;;;;26.13;11.25;;;8.60;99.90;;;;;;4995917;28;91761;-79
2023/02/11 03:13:39;;;;;;;20.88;10.52;;;8.60;99.90;;;;;;4997507;28;88757;-78
2023/02/11 03:16:20;;;;;;;22.88;10.82;;;8.60;99.90;;;;;;4997131;28;89961;-79
2023/02/11 03:19:02;;;;;;;26.27;12.48;;;8.70;99.90;;;;;;4995296;28;92288;-79
2023/02/11 03:21:31;;;;;;;22.38;11.60;;;8.70;99.90;;;;;;4979534;28;91510;-78
2023/02/11 03:24:09;;;;;;;25.13;12.20;;;8.60;99.90;;;;;;4995492;28;88476;-79
2023/02/11 03:26:48;;;;;;;24.83;12.13;;;8.70;99.90;;;;;;4997461;28;88952;-78
2023/02/11 03:29:38;;;;;;;27.98;12.20;;;8.70;99.90;;;;;;4997215;28;89501;-78
2023/02/11 03:32:17;;;;;;;25.42;12.77;;;8.70;99.90;;;;;;4997463;28;88883;-79
2023/02/11 03:34:57;;;;;;;23.23;11.70;;;8.70;99.90;;;;;;4995875;28;89334;-79
2023/02/11 03:37:49;;;;;;;23.55;11.90;;;8.70;99.90;;;;;;4996283;28;88939;-79
2023/02/11 03:40:22;;;;;;;23.67;13.95;;;8.70;99.90;;;;;;4979124;28;89891;-79
2023/02/11 03:42:59;;;;;;;29.98;13.60;;;8.70;99.90;;;;;;4995388;28;91482;-79
2023/02/11 03:45:27;;;;;;;24.02;12.70;;;8.70;99.90;;;;;;4996057;28;88667;-79
2023/02/11 03:48:02;;;;;;;22.23;13.32;;;8.70;99.90;;;;;;4995391;28;88707;-78
2023/02/11 03:50:32;;;;;;;26.42;13.75;;;8.70;99.90;;;;;;4995807;28;92159;-78
2023/02/11 03:53:01;;;;;;;24.00;14.80;;;8.70;99.90;;;;;;4995070;28;91912;-79
2023/02/11 03:55:32;;;;;;;25.45;13.13;;;8.70;99.90;;;;;;4979159;28;91118;-79
2023/02/11 03:57:59;;;;;;;26.83;13.70;;;8.80;99.90;;;;;;4995435;28;91274;-79
2023/02/11 04:00:35;;;;;;;28.15;14.00;;;8.80;99.90;;;;;;4996893;28;89262;-79
2023/02/11 04:03:03;;;;;;;27.05;13.95;;;8.80;99.90;;;;;;4997006;28;88422;-79
2023/02/11 04:05:31;;;;;;;27.95;13.98;;;8.80;99.90;;;;;;4995133;28;98956;-79
2023/02/11 04:07:58;;;;;;;24.50;15.25;;;8.80;99.90;;;;;;4978898;28;89579;-78
2023/02/11 04:10:25;;;;;;;26.58;14.70;;;8.80;99.90;;;;;;4978916;28;92203;-79
2023/02/11 04:12:52;;;;;;;27.95;14.70;;;8.80;99.90;;;;;;4995161;28;88880;-79
2023/02/11 04:15:22;;;;;;;28.38;15.75;;;8.80;99.90;;;;;;4995443;28;89213;-79
2023/02/11 04:17:49;;;;;;;23.23;13.77;;;8.90;99.90;;;;;;4995201;28;89319;-78
2023/02/11 04:20:16;;;;;;;28.75;15.02;;;8.90;99.90;;;;;;4978674;28;92439;-79
2023/02/11 04:22:43;;;;;;;23.75;14.48;;;8.90;99.90;;;;;;4995457;28;89049;-79
2023/02/11 04:25:13;;;;;;;27.33;16.13;;;8.90;99.90;;;;;;4995370;28;91132;-79
2023/02/11 04:27:40;;;;;;;32.35;15.30;;;8.90;99.90;;;;;;4978793;28;91269;-78
2023/02/11 04:30:09;;;;;;;27.08;15.48;;;9.00;99.90;;;;;;4980622;28;89205;-79
2023/02/11 04:32:36;;;;;;;33.28;16.30;;;9.00;99.90;;;;;;4981749;28;91761;-79
2023/02/11 04:35:03;;;;;;;30.63;15.38;;;9.00;99.90;;;;;;4999935;28;88907;-79
2023/02/11 04:37:30;;;;;;;26.92;15.10;;;9.00;99.90;;;;;;4998846;28;88581;-79
2023/02/11 04:39:57;;;;;;;32.10;16.08;;;9.00;99.90;;;;;;4999539;28;89465;-80
2023/02/11 04:42:26;;;;;;;27.27;15.23;;;9.00;99.90;;;;;;4999809;28;88527;-79
2023/02/11 04:44:58;;;;;;;28.40;15.48;;;9.00;99.90;;;;;;4997693;28;88679;-79
2023/02/11 04:47:25;;;;;;;30.65;15.02;;;9.00;99.90;;;;;;4998452;28;88938;-79
2023/02/11 04:49:52;;;;;;;29.92;15.88;;;9.00;99.90;;;;;;4997769;28;89350;-79
2023/02/11 04:52:19;;;;;;;32.35;16.17;;;9.10;99.90;;;;;;4999753;28;89288;-79
2023/02/11 04:54:46;;;;;;;25.45;14.25;;;9.00;99.90;;;;;;4998618;28;88561;-79
2023/02/11 04:57:13;;;;;;;28.13;15.50;;;9.10;99.90;;;;;;4999461;28;89359;-79
2023/02/11 04:59:40;;;;;;;29.77;16.05;;;9.00;99.90;;;;;;4998340;28;89493;-79
2023/02/11 05:02:07;;;;;;;27.92;15.32;;;9.00;99.90;;;;;;4998131;28;88980;-79
2023/02/11 05:04:34;;;;;;;28.70;15.60;;;9.00;99.90;;;;;;4998144;28;90137;-79
2023/02/11 05:07:01;;;;;;;27.60;15.00;;;9.10;99.90;;;;;;4999212;28;88824;-79
2023/02/11 05:09:28;;;;;;;28.52;16.58;;;9.10;99.90;;;;;;4999427;28;88424;-79
2023/02/11 05:11:55;;;;;;;25.98;16.20;;;9.10;99.90;;;;;;4998003;28;88966;-80
2023/02/11 05:14:22;;;;;;;24.88;15.32;;;9.00;99.90;;;;;;4999326;28;88506;-81
2023/02/11 05:16:49;;;;;;;32.15;15.50;;;9.10;99.90;;;;;;4998308;28;88970;-79
2023/02/11 05:19:16;;;;;;;28.42;15.52;;;9.10;99.90;;;;;;4997967;28;89718;-79
2023/02/11 05:21:43;;;;;;;33.30;17.30;;;9.10;99.90;;;;;;4998073;28;89453;-79
2023/02/11 05:24:27;;;;;;;29.42;15.30;;;9.10;99.90;;;;;;4997928;28;90794;-79
2023/02/11 05:26:54;;;;;;;25.70;15.63;;;9.10;99.90;;;;;;4998817;28;88498;-79
2023/02/11 05:29:21;;;;;;;27.95;15.05;;;9.10;99.90;;;;;;4981272;28;92223;-79
2023/02/11 05:31:48;;;;;;;27.88;15.82;;;9.10;99.90;;;;;;4999095;28;88974;-79
2023/02/11 05:34:15;;;;;;;24.95;15.82;;;9.10;99.90;;;;;;4997528;28;88450;-79
2023/02/11 05:36:42;;;;;;;30.48;15.18;;;9.10;99.90;;;;;;4981256;28;91721;-79
2023/02/11 05:39:09;;;;;;;30.90;16.70;;;9.10;99.90;;;;;;4997628;28;92499;-79
2023/02/11 05:41:37;;;;;;;29.02;14.93;;;9.10;99.90;;;;;;4981041;28;88860;-79
2023/02/11 05:44:04;;;;;;;29.35;16.02;;;9.10;99.90;;;;;;4997673;28;88453;-79
2023/02/11 05:46:31;;;;;;;30.95;16.90;;;9.10;99.90;;;;;;4997363;28;92698;-79
2023/02/11 05:49:01;;;;;;;30.77;17.05;;;9.10;99.90;;;;;;4980636;28;89482;-79
2023/02/11 05:51:28;;;;;;;30.27;16.20;;;9.10;99.90;;;;;;4980904;28;91968;-79
2023/02/11 05:53:55;;;;;;;33.95;16.77;;;9.10;99.90;;;;;;4997262;28;92490;-79
2023/02/11 05:56:22;;;;;;;29.85;16.15;;;9.10;99.90;;;;;;4998823;28;88831;-79
2023/02/11 05:58:49;;;;;;;29.02;15.98;;;9.10;99.90;;;;;;4997625;28;89978;-79
2023/02/11 06:01:16;;;;;;;31.58;16.52;;;9.10;99.90;;;;;;4980493;28;91239;-79
2023/02/11 06:03:43;;;;;;;31.30;16.30;;;9.00;99.90;;;;;;4981154;28;88512;-79
2023/02/11 06:06:11;;;;;;;27.38;16.52;;;9.00;99.90;;;;;;4996851;28;91633;-79
2023/02/11 06:08:38;;;;;;;30.40;16.95;;;9.00;99.90;;;;;;4998470;28;89628;-79
2023/02/11 06:11:06;;;;;;;26.92;15.65;;;9.00;99.90;;;;;;4996928;28;88976;-79
2023/02/11 06:13:33;;;;;;;29.23;15.07;;;9.00;99.90;;;;;;4998396;28;88458;-79
2023/02/11 06:16:02;;;;;;;28.23;16.27;;;9.10;99.90;;;;;;4996978;28;89375;-79
2023/02/11 06:18:32;;;;;;;26.02;15.43;;;9.00;99.90;;;;;;4980544;28;92345;-79
2023/02/11 06:20:59;;;;;;;30.10;15.90;;;9.00;99.90;;;;;;4980835;28;90056;-79
2023/02/11 06:23:26;;;;;;;28.58;16.95;;;9.00;99.90;;;;;;4998089;28;88660;-80
2023/02/11 06:26:01;;;;;;;28.67;16.58;;;9.00;99.90;;;;;;4964935;28;91469;-79
2023/02/11 06:28:30;;;;;;;27.75;17.15;;;9.10;99.90;;;;;;4980089;28;92291;-79
2023/02/11 06:31:05;;;;;;;30.40;16.60;;;9.10;99.90;;;;;;4996860;28;91824;-78
2023/02/11 06:33:33;;;;;;;31.20;16.17;;;9.10;99.90;;;;;;4996823;28;88629;-79
2023/02/11 06:36:02;;;;;;;30.70;16.70;;;9.10;99.90;;;;;;4996678;28;89510;-79
2023/02/11 06:38:29;;;;;;;34.03;16.77;;;9.10;99.90;;;;;;4997834;28;89578;-79
2023/02/11 06:40:56;;;;;;;30.00;16.70;;;9.10;99.90;;;;;;4980165;28;88989;-79
2023/02/11 06:43:23;;;;;;;28.67;16.08;;;9.10;99.90;;;;;;4980173;28;88572;-79
2023/02/11 06:45:54;;;;;;;29.13;16.58;;;9.10;99.90;;;;;;4998074;28;89180;-79
2023/02/11 06:48:22;;;;;;;28.50;14.50;;;9.10;99.90;;;;;;4997327;28;89474;-78
2023/02/11 06:50:49;;;;;;;28.25;15.98;;;9.10;99.90;;;;;;4996927;28;89049;-79
2023/02/11 06:53:16;;;;;;;29.65;16.85;;;9.10;99.90;;;;;;4996882;28;88754;-79
2023/02/11 06:55:44;;;;;;;29.25;17.23;;;9.10;99.90;;;;;;4979955;28;91677;-79
2023/02/11 06:58:11;;;;;;;29.77;16.20;;;9.10;99.90;;;;;;4996172;28;89293;-79
2023/02/11 07:00:37;;;;;;;31.00;16.30;;;9.10;99.90;;;;;;4979546;28;93120;-80
2023/02/11 07:03:04;;;;;;;30.58;18.08;;;9.10;99.90;;;;;;4996524;28;89443;-80
2023/02/11 07:05:33;;;;;;;32.30;17.58;;;9.10;99.90;;;;;;4996237;28;91157;-79
2023/02/11 07:08:00;;;;;;;34.85;17.95;;;9.10;99.90;;;;;;4996396;28;89432;-79
2023/02/11 07:10:27;;;;;;;32.15;17.30;;;9.10;99.90;;;;;;4996145;28;91693;-79
2023/02/11 07:12:54;;;;;;;33.78;18.60;;;9.10;99.90;;;;;;4995904;28;90946;-79
2023/02/11 07:15:25;;;;;;;34.38;17.63;;;9.10;99.90;;;;;;4980363;28;89121;-80
2023/02/11 07:17:51;;;;;;;36.15;17.77;;;9.10;99.90;;;;;;4995927;28;96951;-79
2023/02/11 07:20:18;;;;;;;29.23;16.83;;;9.10;99.90;;;;;;4997482;28;88954;-80
2023/02/11 07:22:45;;;;;;;33.42;17.98;;;9.20;99.90;;;;;;4996272;28;91024;-80
2023/02/11 07:25:12;;;;;;;34.33;17.75;;;9.20;99.90;;;;;;4996187;28;89574;-80
2023/02/11 07:27:39;;;;;;;32.65;18.10;;;9.10;99.90;;;;;;4997529;28;89428;-80
2023/02/11 07:30:07;;;;;;;29.20;17.17;;;9.20;99.90;;;;;;4997230;28;89022;-79
2023/02/11 07:32:34;;;;;;;29.95;17.20;;;9.20;99.90;;;;;;4997573;28;89094;-79
2023/02/11 07:35:02;;;;;;;32.55;17.90;;;9.20;99.90;;;;;;4995719;28;91461;-80
2023/02/11 07:37:31;;;;;;;33.67;18.83;;;9.30;99.90;;;;;;4996925;28;88595;-79
2023/02/11 07:39:58;;;;;;;32.65;16.25;;;9.30;99.90;;;;;;4995632;28;91642;-79
2023/02/11 07:42:25;;;;;;;27.65;17.13;;;9.40;99.90;;;;;;4995774;28;90932;-79
2023/02/11 07:44:52;;;;;;;29.58;17.75;;;9.40;99.90;;;;;;4997382;28;89616;-79
2023/02/11 07:47:19;;;;;;;28.05;16.55;;;9.40;99.90;;;;;;4979281;28;92948;-79
2023/02/11 07:49:46;;;;;;;30.20;16.58;;;9.50;99.90;;;;;;4962839;28;91612;-79
2023/02/11 07:52:13;;;;;;;26.55;14.98;;;9.50;99.90;;;;;;4995649;28;88582;-79
2023/02/11 07:54:40;;;;;;;29.52;16.73;;;9.50;99.90;;;;;;4979105;28;90717;-80
2023/02/11 07:57:07;;;;;;;30.58;16.95;;;9.50;99.90;;;;;;4995429;28;91878;-79
2023/02/11 07:59:34;;;;;;;34.25;18.17;;;9.60;99.90;;;;;;4995487;28;91976;-79
2023/02/11 08:02:02;;;;;;;31.90;17.70;;;9.60;99.90;;;;;;4979422;28;88484;-79
2023/02/11 08:04:29;;;;;;;32.42;18.38;;;9.70;99.90;;;;;;4999154;28;88696;-79
2023/02/11 08:06:57;;;;;;;25.67;16.17;;;9.70;99.90;;;;;;4999145;28;91053;-79
2023/02/11 08:09:25;;;;;;;30.20;16.55;;;9.70;99.90;;;;;;4999647;28;88961;-79
2023/02/11 08:11:52;;;;;;;28.98;17.35;;;9.80;99.90;;;;;;5000479;28;88539;-80
2023/02/11 08:14:19;;;;;;;27.48;16.05;;;9.80;99.90;;;;;;4999677;28;94852;-79
2023/02/11 08:16:46;;;;;;;32.13;17.92;;;9.80;99.90;;;;;;4998801;28;90880;-79
2023/02/11 08:19:15;;;;;;;28.67;17.20;;;9.90;99.90;;;;;;4998810;28;91583;-79
2023/02/11 08:21:43;;;;;;;29.63;16.25;;;9.90;99.90;;;;;;5000194;28;88455;-79
2023/02/11 08:24:10;;;;;;;24.45;16.05;;;10.00;99.90;;;;;;4982374;28;91246;-79
2023/02/11 08:26:37;;;;;;;26.63;16.27;;;9.90;99.90;;;;;;4999855;28;89492;-79
2023/02/11 08:29:10;;;;;;;28.23;15.80;;;9.90;99.90;;;;;;4982274;28;90551;-79
2023/02/11 08:31:40;;;;;;;33.38;15.68;;;10.00;99.90;;;;;;5000177;28;88881;-78
2023/02/11 08:34:09;;;;;;;24.90;14.77;;;10.00;99.90;;;;;;4998557;28;88936;-79
2023/02/11 08:36:38;;;;;;;27.50;16.08;;;10.00;99.90;;;;;;4997862;28;97400;-79
2023/02/11 08:39:08;;;;;;;30.27;16.30;;;10.00;99.90;;;;;;4998193;28;91416;-79
2023/02/11 08:41:47;;;;;;;26.90;14.35;;;10.10;99.90;;;;;;4998900;28;88595;-79
2023/02/11 08:44:16;;;;;;;27.30;15.63;;;10.10;99.90;;;;;;4999798;28;88713;-78
2023/02/11 08:46:43;;;;;;;26.27;15.05;;;10.10;99.90;;;;;;4999596;28;89370;-79
2023/02/11 08:49:10;;;;;;;25.88;15.30;;;10.20;99.90;;;;;;4997479;28;92187;-79
2023/02/11 08:51:37;;;;;;;25.52;14.70;;;10.20;99.90;;;;;;4997550;28;88685;-78
2023/02/11 08:54:08;;;;;;;22.17;14.73;;;10.30;99.90;;;;;;4998448;28;88940;-78
2023/02/11 08:56:36;;;;;;;21.73;14.63;;;10.30;99.90;;;;;;4999976;28;89284;-79
2023/02/11 08:59:04;;;;;;;29.52;14.55;;;10.30;99.90;;;;;;4999543;28;89038;-79
2023/02/11 09:01:31;;;;;;;22.90;14.65;;;10.30;99.90;;;;;;4999522;28;88468;-79
2023/02/11 09:03:58;;;;;;;21.08;13.52;;;10.30;99.90;;;;;;4981471;28;91047;-79
2023/02/11 09:06:27;;;;;;;26.83;14.93;;;10.40;99.90;;;;;;4998072;28;89386;-79
2023/02/11 09:08:55;;;;;;;22.95;13.98;;;10.30;99.90;;;;;;4998129;28;88958;-79
2023/02/11 09:11:29;;;;;;;23.77;13.95;;;10.30;99.90;;;;;;4998184;28;88467;-79
2023/02/11 09:13:56;;;;;;;19.83;13.45;;;10.40;99.90;;;;;;4998491;28;88966;-79
2023/02/11 09:16:27;;;;;;;22.10;14.30;;;10.40;99.90;;;;;;4996761;28;92256;-79
2023/02/11 09:18:57;;;;;;;27.40;15.18;;;10.50;99.90;;;;;;4999271;28;89070;-79
2023/02/11 09:21:24;;;;;;;22.30;13.32;;;10.60;99.90;;;;;;4999126;28;88798;-79
2023/02/11 09:23:51;;;;;;;20.92;13.60;;;10.60;99.90;;;;;;4998094;28;88620;-79
2023/02/11 09:26:27;;;;;;;21.65;12.88;;;10.60;99.90;;;;;;4997770;28;91997;-79
2023/02/11 09:28:55;;;;;;;24.25;13.50;;;10.70;99.90;;;;;;4981214;28;91760;-79
2023/02/11 09:31:24;;;;;;;24.58;13.80;;;10.70;99.90;;;;;;4998057;28;88504;-79
2023/02/11 09:33:54;;;;;;;18.25;12.82;;;10.80;99.90;;;;;;4999024;28;88779;-79
2023/02/11 09:36:24;;;;;;;20.60;13.65;;;10.80;99.90;;;;;;4998660;28;97245;-79
2023/02/11 09:38:53;;;;;;;19.45;12.73;;;10.80;99.90;;;;;;4999090;28;89069;-80
2023/02/11 09:41:20;;;;;;;27.17;14.05;;;10.90;99.90;;;;;;4998926;28;88844;-79
2023/02/11 09:43:48;;;;;;;25.48;13.02;;;10.90;99.90;;;;;;4998719;28;88659;-79
2023/02/11 09:46:17;;;;;;;23.63;13.20;;;10.90;99.90;;;;;;4997957;28;89446;-79
2023/02/11 09:48:49;;;;;;;22.15;14.18;;;10.90;99.90;;;;;;4996949;28;88518;-79
2023/02/11 09:51:31;;;;;;;19.27;12.82;;;11.00;99.90;;;;;;4997518;28;90898;-79
2023/02/11 09:54:04;;;;;;;25.50;12.82;;;11.10;99.90;;;;;;4998390;28;89673;-79
2023/02/11 09:56:31;;;;;;;19.42;12.13;;;11.10;99.90;;;;;;4997410;28;88419;-79
2023/02/11 09:58:58;;;;;;;23.25;13.38;;;11.20;99.90;;;;;;4997633;28;89144;-79
2023/02/11 10:01:50;;;;;;;22.15;13.18;;;11.20;99.90;;;;;;4997228;28;91158;-79
2023/02/11 10:04:32;;;;;;;21.90;13.82;;;11.30;99.90;;;;;;4997154;28;91657;-79
2023/02/11 10:07:21;;;;;;;20.75;13.15;;;11.30;99.90;;;;;;4998793;28;89681;-79
2023/02/11 10:09:51;;;;;;;20.98;13.02;;;11.40;99.90;;;;;;4998712;28;88939;-80
2023/02/11 10:12:50;;;;;;;19.20;12.57;;;11.40;99.90;;;;;;4998596;28;88441;-79
2023/02/11 10:15:20;;;;;;;20.17;12.07;;;11.50;99.90;;;;;;4980327;28;91648;-80
2023/02/11 10:18:28;;;;;;;22.77;12.45;;;11.60;99.90;;;;;;4998207;28;89438;-79
2023/02/11 10:20:58;;;;;;;20.75;11.60;;;11.70;99.90;;;;;;4949038;28;88958;-79
2023/02/11 10:23:33;;;;;;;17.08;12.13;;;11.60;99.90;;;;;;4997085;28;89968;-79
2023/02/11 10:26:00;;;;;;;18.33;12.10;;;11.80;99.90;;;;;;4996953;28;91677;-79
2023/02/11 10:28:35;;;;;;;18.80;11.60;;;11.80;99.90;;;;;;4996449;28;89388;-79
2023/02/11 10:31:10;;;;;;;18.40;11.07;;;11.90;99.90;;;;;;4998464;28;89152;-79
2023/02/11 10:33:50;;;;;;;18.27;12.00;;;12.00;99.90;;;;;;4996716;28;88468;-80
2023/02/11 10:36:18;;;;;;;20.60;12.35;;;12.00;99.90;;;;;;4996834;28;91637;-79
2023/02/11 10:38:45;;;;;;;18.00;10.73;;;12.00;99.90;;;;;;4998061;28;89489;-79
2023/02/11 10:41:25;;;;;;;16.45;10.43;;;12.00;99.90;;;;;;4996789;28;89145;-79
2023/02/11 10:43:52;;;;;;;19.55;11.40;;;12.00;99.90;;;;;;4996892;28;88957;-79
2023/02/11 10:46:25;;;;;;;20.48;11.48;;;12.00;99.90;;;;;;4996772;28;89653;-79
2023/02/11 10:48:53;;;;;;;20.67;10.70;;;12.00;99.90;;;;;;4997701;28;88513;-79
2023/02/11 10:51:22;;;;;;;14.45;9.75;;;12.00;99.90;;;;;;4998176;28;88958;-79
2023/02/11 10:54:13;;;;;;;20.45;9.50;;;12.10;99.90;;;;;;4998424;28;88450;-79
2023/02/11 10:56:45;;;;;;;14.80;8.77;;;12.20;99.90;;;;;;4998533;28;88796;-79
2023/02/11 10:59:12;;;;;;;16.50;9.98;;;12.20;99.90;;;;;;4999164;28;88673;-79
2023/02/11 11:01:49;;;;;;;20.33;10.38;;;12.30;99.90;;;;;;4997381;28;97291;-79
2023/02/11 11:04:29;;;;;;;17.98;10.32;;;12.40;99.90;;;;;;4996633;28;90942;-79
2023/02/11 11:07:16;;;;;;;19.48;10.13;;;12.60;99.90;;;;;;4995968;28;88940;-80
2023/02/11 11:10:01;;;;;;;14.48;9.23;;;12.60;99.90;;;;;;4997679;28;89244;-80
2023/02/11 11:12:35;;;;;;;16.60;8.65;;;12.80;99.90;;;;;;4996417;28;91856;-79
2023/02/11 11:15:21;;;;;;;16.48;8.60;;;12.80;99.90;;;;;;4998121;28;88413;-79
2023/02/11 11:18:17;;;;;;;12.27;8.10;;;12.90;99.90;;;;;;4996696;28;92687;-79
2023/02/11 11:21:17;;;;;;;15.57;8.85;;;13.00;99.90;;;;;;4996595;28;91316;-79
2023/02/11 11:23:57;;;;;;;15.35;8.90;;;12.90;99.90;;;;;;4996782;28;89132;-79
2023/02/11 11:26:27;;;;;;;13.05;7.47;;;13.00;99.90;;;;;;4998444;28;88780;-80
2023/02/11 11:29:01;;;;;;;11.15;7.68;;;12.90;99.90;;;;;;4996483;28;92087;-79
2023/02/11 11:31:52;;;;;;;17.35;8.77;;;13.00;99.90;;;;;;4997484;28;88457;-80
2023/02/11 11:34:50;;;;;;;12.35;7.22;;;13.00;99.90;;;;;;4996991;28;87988;-80
2023/02/11 11:37:26;;;;;;;16.02;8.20;;;13.00;99.90;;;;;;4985852;28;88082;-80
2023/02/11 11:40:12;;;;;;;18.98;8.27;;;12.80;99.90;;;;;;4995613;28;92079;-80
2023/02/11 11:42:39;;;;;;;14.13;7.38;;;12.80;99.90;;;;;;4996654;28;89604;-80
2023/02/11 11:45:18;;;;;;;16.08;7.18;;;12.80;99.90;;;;;;4996109;28;91268;-80
2023/02/11 11:48:00;;;;;;;15.73;7.55;;;12.80;99.90;;;;;;4997563;28;88828;-80
2023/02/11 11:50:49;;;;;;;13.07;7.00;;;12.80;99.90;;;;;;4980050;28;89621;-80
2023/02/11 11:53:37;;;;;;;11.43;7.20;;;12.70;99.90;;;;;;4998114;28;88446;-80
2023/02/11 11:56:25;;;;;;;14.15;7.15;;;12.70;99.90;;;;;;4980003;28;90047;-80
2023/02/11 11:58:53;;;;;;;14.55;7.28;;;12.70;99.90;;;;;;4997669;28;88426;-78
2023/02/11 12:01:51;;;;;;;16.75;7.45;;;12.60;99.90;;;;;;4996932;28;88096;-80
2023/02/11 12:04:24;;;;;;;18.63;8.40;;;12.60;99.90;;;;;;4998040;28;88594;-80
2023/02/11 12:07:03;;;;;;;14.73;6.53;;;12.50;99.90;;;;;;4996179;28;88691;-80
2023/02/11 12:10:11;;;;;;;13.13;6.43;;;12.60;99.90;;;;;;4997846;28;88560;-80
2023/02/11 12:12:44;;;;;;;12.30;7.80;;;12.60;99.90;;;;;;4977376;28;88849;-79
2023/02/11 12:15:27;;;;;;;13.75;6.93;;;12.50;99.90;;;;;;4996192;28;91032;-80
2023/02/11 12:18:18;;;;;;;15.23;6.60;;;12.50;99.90;;;;;;4997758;28;88472;-80
2023/02/11 12:20:48;;;;;;;11.40;6.50;;;12.50;99.90;;;;;;4996214;28;90906;-80
2023/02/11 12:23:46;;;;;;;15.60;6.95;;;12.50;99.90;;;;;;4997917;28;88782;-80
2023/02/11 12:26:34;;;;;;;14.75;6.82;;;12.70;99.90;;;;;;4997795;28;88580;-80
2023/02/11 12:29:27;;;;;;;15.75;6.65;;;12.70;99.90;;;;;;4995746;28;89326;-80
2023/02/11 12:32:21;;;;;;;10.40;5.72;;;12.70;99.90;;;;;;4991424;28;88221;-80
2023/02/11 12:35:14;;;;;;;16.13;5.80;;;12.70;99.90;;;;;;4995379;28;91299;-80
2023/02/11 12:38:03;;;;;;;12.25;5.38;;;12.70;99.90;;;;;;4996099;28;89193;-80
2023/02/11 12:40:39;;;;;;;13.40;5.68;;;12.80;99.90;;;;;;4997508;28;87914;-80
2023/02/11 12:43:32;;;;;;;8.82;5.35;;;12.80;99.90;;;;;;4997318;28;88453;-80
2023/02/11 12:46:14;;;;;;;12.90;5.70;;;12.90;99.90;;;;;;4994391;28;89108;-79
2023/02/11 12:49:19;;;;;;;9.32;4.53;;;12.90;99.90;;;;;;4995778;28;88729;-79
2023/02/11 12:52:18;;;;;;;13.63;5.72;;;13.00;99.90;;;;;;5000228;28;88009;-80
2023/02/11 12:55:00;;;;;;;14.57;5.50;;;13.00;99.90;;;;;;4999443;28;91101;-79
2023/02/11 12:57:35;;;;;;;15.68;4.50;;;13.10;99.90;;;;;;4998910;28;91172;-79
2023/02/11 13:00:12;;;;;;;9.10;4.87;;;13.10;99.90;;;;;;4999101;28;91637;-79
2023/02/11 13:03:17;;;;;;;10.40;4.70;;;13.10;99.90;;;;;;4998814;28;88788;-80
2023/02/11 13:06:00;;;;;;;8.98;4.22;;;13.20;99.90;;;;;;4922323;28;91312;-79
2023/02/11 13:08:35;;;;;;;16.15;4.95;;;13.30;99.90;;;;;;5010760;28;89137;-80
2023/02/11 13:11:17;;;;;;;15.00;5.55;;;13.20;99.90;;;;;;4999091;28;88658;-79